createdAt,value
2023-09-10T00:00:03.424Z,80.57
2023-09-10T00:01:03.580Z,80.59
2023-09-10T00:02:03.724Z,80.55
2023-09-10T00:03:03.824Z,80.52
2023-09-10T00:04:04.010Z,80.52
2023-09-10T00:05:04.141Z,80.50
2023-09-10T00:06:05.149Z,80.49
2023-09-10T00:07:04.297Z,80.50
2023-09-10T00:08:04.470Z,80.47
2023-09-10T00:09:04.556Z,80.48
2023-09-10T00:10:04.647Z,80.45
2023-09-10T00:11:04.848Z,80.41
2023-09-10T00:12:04.951Z,80.37
2023-09-10T00:13:05.115Z,80.30
2023-09-10T00:14:05.240Z,80.24
2023-09-10T00:15:05.331Z,80.20
2023-09-10T00:16:05.579Z,80.13
2023-09-10T00:17:05.485Z,80.08
2023-09-10T00:18:05.656Z,80.03
2023-09-10T00:19:05.779Z,79.99
2023-09-10T00:20:05.913Z,79.92
2023-09-10T00:21:05.974Z,79.85
2023-09-10T00:22:06.113Z,79.76
2023-09-10T00:23:06.354Z,79.72
2023-09-10T00:24:06.387Z,79.63
2023-09-10T00:25:06.553Z,79.60
2023-09-10T00:26:06.682Z,79.56
2023-09-10T00:27:06.822Z,79.49
2023-09-10T00:28:06.915Z,79.43
2023-09-10T00:29:07.062Z,79.42
2023-09-10T00:30:07.162Z,79.37
2023-09-10T00:31:07.326Z,79.35
2023-09-10T00:32:07.425Z,79.30
2023-09-10T00:33:07.612Z,79.32
2023-09-10T00:34:07.666Z,79.34
2023-09-10T00:35:07.784Z,79.33
2023-09-10T00:36:07.865Z,79.34
2023-09-10T00:37:07.980Z,79.35
2023-09-10T00:38:08.104Z,79.34
2023-09-10T00:39:08.279Z,79.39
2023-09-10T00:40:08.356Z,79.40
2023-09-10T00:41:08.584Z,79.39
2023-09-10T00:42:08.588Z,79.46
2023-09-10T00:43:08.693Z,79.45
2023-09-10T00:44:08.811Z,79.46
2023-09-10T00:45:08.946Z,79.47
2023-09-10T00:46:09.037Z,79.45
2023-09-10T00:47:09.147Z,79.45
2023-09-10T00:48:09.236Z,79.48
2023-09-10T00:49:09.446Z,79.48
2023-09-10T00:50:09.510Z,79.51
2023-09-10T00:51:09.623Z,79.50
2023-09-10T00:52:09.816Z,79.52
2023-09-10T00:53:10.047Z,79.52
2023-09-10T00:54:10.049Z,79.52
2023-09-10T00:55:10.175Z,79.49
2023-09-10T00:56:10.312Z,79.46
2023-09-10T00:57:10.418Z,79.44
2023-09-10T00:58:10.696Z,79.46
2023-09-10T00:59:10.777Z,79.45
2023-09-10T01:00:10.784Z,79.51
2023-09-10T01:01:11.015Z,79.55
2023-09-10T01:02:11.145Z,79.57
2023-09-10T01:03:11.226Z,79.59
2023-09-10T01:04:11.247Z,79.66
2023-09-10T01:05:11.425Z,79.71
2023-09-10T01:06:11.456Z,79.74
2023-09-10T01:07:11.557Z,79.77
2023-09-10T01:08:11.684Z,79.81
2023-09-10T01:09:11.790Z,79.86
2023-09-10T01:10:11.985Z,79.88
2023-09-10T01:11:12.071Z,79.86
2023-09-10T01:12:12.160Z,79.88
2023-09-10T01:13:12.260Z,79.89
2023-09-10T01:14:12.433Z,79.93
2023-09-10T01:15:12.506Z,79.93
2023-09-10T01:16:12.596Z,79.94
2023-09-10T01:17:12.798Z,79.95
2023-09-10T01:18:12.853Z,79.91
2023-09-10T01:19:12.942Z,79.91
2023-09-10T01:20:13.135Z,79.93
2023-09-10T01:21:13.198Z,79.89
2023-09-10T01:22:13.296Z,79.92
2023-09-10T01:23:13.446Z,79.90
2023-09-10T01:24:13.529Z,79.86
2023-09-10T01:25:13.692Z,79.93
2023-09-10T01:26:13.806Z,79.92
2023-09-10T01:27:13.875Z,79.96
2023-09-10T01:28:13.980Z,80.02
2023-09-10T01:29:14.163Z,80.15
2023-09-10T01:30:14.259Z,80.19
2023-09-10T01:31:14.427Z,80.22
2023-09-10T01:32:14.612Z,80.28
2023-09-10T01:33:14.633Z,80.32
2023-09-10T01:34:14.776Z,80.40
2023-09-10T01:35:14.909Z,80.40
2023-09-10T01:36:15.012Z,80.42
2023-09-10T01:37:15.156Z,80.38
2023-09-10T01:38:15.275Z,80.43
2023-09-10T01:39:15.365Z,80.41
2023-09-10T01:40:15.465Z,80.43
2023-09-10T01:41:15.618Z,80.45
2023-09-10T01:42:15.801Z,80.44
2023-09-10T01:43:15.893Z,80.43
2023-09-10T01:44:16.085Z,80.43
2023-09-10T01:45:16.116Z,80.42
2023-09-10T01:46:16.277Z,80.47
2023-09-10T01:47:16.439Z,80.41
2023-09-10T01:48:16.498Z,80.39
2023-09-10T01:49:16.694Z,80.37
2023-09-10T01:50:16.908Z,80.39
2023-09-10T01:51:16.905Z,80.38
2023-09-10T01:52:17.066Z,80.35
2023-09-10T01:53:17.178Z,80.33
2023-09-10T01:54:17.321Z,80.34
2023-09-10T01:55:17.408Z,80.44
2023-09-10T01:56:17.600Z,80.49
2023-09-10T01:57:17.692Z,80.48
2023-09-10T01:58:17.800Z,80.55
2023-09-10T01:59:17.958Z,80.57
2023-09-10T02:00:17.997Z,80.50
2023-09-10T02:01:18.268Z,80.44
2023-09-10T02:02:18.547Z,80.41
2023-09-10T02:03:18.486Z,80.38
2023-09-10T02:04:18.742Z,80.52
2023-09-10T02:05:18.767Z,80.65
2023-09-10T02:06:18.785Z,80.63
2023-09-10T02:07:18.991Z,80.63
2023-09-10T02:08:19.028Z,80.57
2023-09-10T02:09:19.133Z,80.61
2023-09-10T02:10:19.223Z,80.78
2023-09-10T02:11:19.420Z,80.98
2023-09-10T02:12:19.544Z,81.08
2023-09-10T02:13:19.713Z,81.13
2023-09-10T02:14:19.802Z,81.23
2023-09-10T02:15:19.886Z,81.24
2023-09-10T02:16:20.060Z,81.14
2023-09-10T02:17:20.228Z,81.10
2023-09-10T02:18:20.309Z,81.03
2023-09-10T02:19:20.450Z,81.01
2023-09-10T02:20:20.548Z,81.03
2023-09-10T02:21:20.757Z,80.89
2023-09-10T02:22:20.766Z,80.98
2023-09-10T02:23:20.941Z,81.27
2023-09-10T02:24:21.020Z,81.22
2023-09-10T02:25:22.135Z,81.23
2023-09-10T02:26:21.340Z,81.24
2023-09-10T02:27:21.421Z,81.22
2023-09-10T02:28:21.522Z,81.26
2023-09-10T02:29:21.796Z,81.22
2023-09-10T02:30:21.765Z,81.21
2023-09-10T02:31:21.968Z,81.17
2023-09-10T02:32:22.245Z,81.30
2023-09-10T02:33:22.157Z,81.40
2023-09-10T02:34:22.325Z,81.42
2023-09-10T02:35:22.392Z,81.48
2023-09-10T02:36:22.512Z,81.60
2023-09-10T02:37:22.612Z,81.72
2023-09-10T02:38:22.799Z,81.90
2023-09-10T02:39:22.895Z,81.93
2023-09-10T02:40:22.956Z,81.87
2023-09-10T02:41:23.077Z,81.84
2023-09-10T02:42:23.204Z,81.70
2023-09-10T02:43:23.390Z,81.59
2023-09-10T02:44:23.527Z,81.48
2023-09-10T02:45:23.597Z,81.41
2023-09-10T02:46:23.767Z,81.45
2023-09-10T02:47:23.832Z,81.34
2023-09-10T02:48:23.959Z,81.30
2023-09-10T02:49:24.102Z,81.32
2023-09-10T02:50:27.794Z,81.31
2023-09-10T02:51:24.242Z,81.29
2023-09-10T02:52:24.348Z,81.31
2023-09-10T02:53:24.522Z,81.31
2023-09-10T02:54:24.566Z,81.25
2023-09-10T02:55:24.781Z,81.26
2023-09-10T02:56:24.850Z,81.28
2023-09-10T02:57:24.975Z,81.24
2023-09-10T02:58:25.089Z,81.21
2023-09-10T02:59:25.207Z,81.24
2023-09-10T03:00:25.367Z,81.19
2023-09-10T03:01:25.476Z,81.31
2023-09-10T03:02:25.749Z,81.49
2023-09-10T03:03:25.857Z,81.68
2023-09-10T03:04:25.813Z,81.71
2023-09-10T03:05:25.965Z,81.76
2023-09-10T03:06:26.057Z,81.74
2023-09-10T03:07:26.160Z,81.69
2023-09-10T03:08:26.318Z,81.69
2023-09-10T03:09:26.363Z,81.64
2023-09-10T03:10:26.517Z,81.66
2023-09-10T03:11:26.636Z,81.59
2023-09-10T03:12:26.780Z,81.60
2023-09-10T03:13:26.892Z,81.58
2023-09-10T03:14:27.011Z,81.59
2023-09-10T03:15:27.109Z,81.56
2023-09-10T03:16:27.260Z,81.56
2023-09-10T03:17:27.367Z,81.57
2023-09-10T03:18:27.453Z,81.59
2023-09-10T03:19:27.568Z,81.60
2023-09-10T03:20:27.740Z,81.63
2023-09-10T03:21:27.853Z,81.63
2023-09-10T03:22:27.994Z,81.66
2023-09-10T03:23:28.101Z,81.68
2023-09-10T03:24:28.216Z,81.73
2023-09-10T03:25:28.304Z,81.71
2023-09-10T03:26:28.470Z,81.66
2023-09-10T03:27:28.552Z,81.65
2023-09-10T03:28:28.687Z,81.65
2023-09-10T03:29:28.758Z,81.69
2023-09-10T03:30:28.861Z,81.74
2023-09-10T03:31:28.968Z,81.80
2023-09-10T03:32:29.217Z,81.86
2023-09-10T03:33:29.227Z,81.88
2023-09-10T03:34:29.333Z,81.87
2023-09-10T03:35:29.469Z,81.92
2023-09-10T03:36:29.558Z,81.88
2023-09-10T03:37:29.703Z,81.91
2023-09-10T03:38:29.810Z,81.98
2023-09-10T03:39:29.852Z,82.00
2023-09-10T03:40:29.953Z,82.04
2023-09-10T03:41:30.062Z,82.06
2023-09-10T03:42:30.197Z,82.03
2023-09-10T03:43:30.322Z,82.06
2023-09-10T03:44:30.474Z,82.09
2023-09-10T03:45:30.552Z,82.11
2023-09-10T03:46:30.682Z,82.08
2023-09-10T03:47:30.819Z,82.08
2023-09-10T03:48:30.882Z,82.08
2023-09-10T03:49:31.070Z,82.04
2023-09-10T03:50:31.167Z,82.05
2023-09-10T03:51:31.274Z,82.04
2023-09-10T03:52:31.436Z,82.01
2023-09-10T03:53:31.567Z,81.98
2023-09-10T03:54:31.715Z,81.95
2023-09-10T03:55:31.804Z,81.94
2023-09-10T03:56:31.915Z,81.90
2023-09-10T03:57:32.029Z,81.88
2023-09-10T03:58:32.119Z,81.89
2023-09-10T03:59:32.210Z,81.87
2023-09-10T04:00:32.363Z,81.86
2023-09-10T04:01:32.446Z,81.88
2023-09-10T04:02:32.711Z,81.87
2023-09-10T04:03:32.721Z,81.90
2023-09-10T04:04:32.845Z,81.99
2023-09-10T04:05:32.987Z,82.03
2023-09-10T04:06:33.109Z,82.07
2023-09-10T04:07:33.190Z,82.11
2023-09-10T04:08:33.340Z,82.18
2023-09-10T04:09:33.445Z,82.30
2023-09-10T04:10:33.599Z,82.36
2023-09-10T04:11:33.637Z,82.45
2023-09-10T04:12:33.734Z,82.47
2023-09-10T04:13:33.865Z,82.52
2023-09-10T04:14:34.022Z,82.54
2023-09-10T04:15:34.135Z,82.56
2023-09-10T04:16:34.280Z,82.58
2023-09-10T04:17:34.445Z,82.63
2023-09-10T04:18:34.508Z,82.67
2023-09-10T04:19:35.605Z,82.67
2023-09-10T04:20:34.814Z,82.73
2023-09-10T04:21:34.880Z,82.76
2023-09-10T04:22:35.029Z,82.80
2023-09-10T04:23:35.137Z,82.85
2023-09-10T04:24:35.292Z,82.88
2023-09-10T04:25:35.427Z,82.88
2023-09-10T04:26:35.538Z,82.90
2023-09-10T04:27:35.636Z,82.85
2023-09-10T04:28:35.754Z,82.80
2023-09-10T04:29:35.869Z,82.80
2023-09-10T04:30:35.975Z,82.79
2023-09-10T04:31:36.159Z,82.78
2023-09-10T04:32:36.344Z,82.73
2023-09-10T04:33:36.393Z,82.71
2023-09-10T04:34:36.482Z,82.68
2023-09-10T04:35:36.642Z,82.69
2023-09-10T04:36:36.760Z,82.66
2023-09-10T04:37:36.868Z,82.66
2023-09-10T04:38:37.300Z,82.63
2023-09-10T04:39:37.137Z,82.62
2023-09-10T04:40:37.253Z,82.63
2023-09-10T04:41:37.449Z,82.61
2023-09-10T04:42:37.489Z,82.62
2023-09-10T04:43:37.575Z,82.63
2023-09-10T04:44:37.676Z,82.63
2023-09-10T04:45:37.792Z,82.62
2023-09-10T04:46:37.932Z,82.69
2023-09-10T04:47:38.042Z,82.68
2023-09-10T04:48:38.361Z,82.68
2023-09-10T04:49:38.252Z,82.67
2023-09-10T04:50:38.377Z,82.69
2023-09-10T04:51:38.517Z,82.69
2023-09-10T04:52:38.663Z,82.63
2023-09-10T04:53:38.710Z,82.59
2023-09-10T04:54:38.833Z,82.57
2023-09-10T04:55:39.030Z,82.52
2023-09-10T04:56:39.076Z,82.48
2023-09-10T04:57:39.173Z,82.48
2023-09-10T04:58:39.522Z,82.46
2023-09-10T04:59:39.444Z,82.51
2023-09-10T05:00:39.536Z,82.52
2023-09-10T05:01:39.785Z,82.51
2023-09-10T05:02:39.919Z,82.53
2023-09-10T05:03:39.977Z,82.55
2023-09-10T05:04:40.114Z,82.57
2023-09-10T05:05:40.212Z,82.57
2023-09-10T05:06:40.351Z,82.55
2023-09-10T05:07:40.501Z,82.56
2023-09-10T05:08:40.800Z,82.53
2023-09-10T05:09:40.742Z,82.53
2023-09-10T05:10:40.849Z,82.45
2023-09-10T05:11:40.989Z,82.44
2023-09-10T05:12:41.065Z,82.35
2023-09-10T05:13:41.181Z,82.34
2023-09-10T05:14:41.271Z,82.32
2023-09-10T05:15:41.379Z,82.27
2023-09-10T05:16:41.588Z,82.27
2023-09-10T05:17:41.658Z,82.23
2023-09-10T05:18:41.779Z,82.17
2023-09-10T05:19:41.812Z,82.10
2023-09-10T05:20:41.872Z,82.05
2023-09-10T05:21:42.039Z,81.98
2023-09-10T05:22:42.160Z,81.93
2023-09-10T05:23:42.258Z,81.86
2023-09-10T05:24:42.367Z,81.82
2023-09-10T05:25:42.535Z,81.72
2023-09-10T05:26:42.646Z,81.65
2023-09-10T05:27:42.751Z,81.59
2023-09-10T05:28:46.293Z,81.51
2023-09-10T05:29:42.979Z,81.44
2023-09-10T05:30:43.091Z,81.38
2023-09-10T05:31:43.274Z,81.33
2023-09-10T05:32:43.512Z,81.24
2023-09-10T05:33:43.500Z,81.14
2023-09-10T05:34:43.641Z,81.04
2023-09-10T05:35:43.685Z,81.06
2023-09-10T05:36:43.781Z,80.98
2023-09-10T05:37:44.053Z,80.97
2023-09-10T05:38:44.032Z,80.88
2023-09-10T05:39:44.134Z,80.79
2023-09-10T05:40:44.241Z,80.73
2023-09-10T05:41:44.395Z,80.66
2023-09-10T05:42:44.542Z,80.57
2023-09-10T05:43:44.670Z,80.54
2023-09-10T05:44:44.777Z,80.50
2023-09-10T05:45:44.927Z,80.45
2023-09-10T05:46:45.013Z,80.47
2023-09-10T05:47:45.187Z,80.44
2023-09-10T05:48:45.282Z,80.28
2023-09-10T05:49:45.421Z,80.43
2023-09-10T05:50:45.510Z,80.37
2023-09-10T05:51:45.618Z,80.36
2023-09-10T05:52:45.742Z,80.26
2023-09-10T05:53:45.998Z,80.09
2023-09-10T05:54:45.981Z,79.97
2023-09-10T05:55:46.119Z,79.94
2023-09-10T05:56:46.210Z,79.85
2023-09-10T05:57:46.410Z,79.79
2023-09-10T05:58:46.531Z,79.60
2023-09-10T05:59:46.580Z,79.38
2023-09-10T06:00:46.719Z,79.17
2023-09-10T06:01:46.887Z,78.76
2023-09-10T06:02:47.092Z,78.58
2023-09-10T06:03:47.193Z,78.33
2023-09-10T06:04:47.383Z,78.00
2023-09-10T06:05:47.422Z,77.79
2023-09-10T06:06:47.521Z,77.68
2023-09-10T06:07:47.679Z,77.42
2023-09-10T06:08:47.867Z,77.38
2023-09-10T06:09:47.944Z,77.08
2023-09-10T06:10:48.098Z,76.67
2023-09-10T06:11:48.158Z,76.42
2023-09-10T06:12:48.259Z,76.17
2023-09-10T06:13:48.465Z,75.87
2023-09-10T06:14:48.569Z,75.82
2023-09-10T06:15:48.775Z,75.84
2023-09-10T06:16:48.857Z,75.73
2023-09-10T06:17:48.960Z,75.67
2023-09-10T06:18:49.036Z,75.64
2023-09-10T06:19:49.206Z,75.32
2023-09-10T06:20:49.276Z,75.23
2023-09-10T06:21:49.410Z,75.14
2023-09-10T06:22:49.558Z,75.13
2023-09-10T06:23:49.626Z,75.04
2023-09-10T06:24:49.780Z,74.92
2023-09-10T06:25:53.773Z,74.49
2023-09-10T06:26:49.969Z,73.76
2023-09-10T06:27:50.065Z,73.28
2023-09-10T06:28:50.230Z,73.49
2023-09-10T06:29:50.324Z,73.16
2023-09-10T06:30:50.377Z,73.11
2023-09-10T06:31:50.589Z,73.12
2023-09-10T06:32:50.861Z,74.05
2023-09-10T06:33:50.780Z,73.27
2023-09-10T06:34:51.043Z,72.44
2023-09-10T06:35:51.078Z,72.64
2023-09-10T06:36:51.178Z,71.86
2023-09-10T06:37:51.346Z,72.12
2023-09-10T06:38:51.420Z,71.39
2023-09-10T06:39:51.579Z,71.08
2023-09-10T06:40:51.688Z,70.97
2023-09-10T06:41:51.798Z,70.81
2023-09-10T06:42:51.916Z,70.94
2023-09-10T06:43:52.066Z,72.05
2023-09-10T06:44:52.151Z,72.17
2023-09-10T06:45:52.401Z,71.81
2023-09-10T06:46:52.467Z,72.79
2023-09-10T06:47:52.522Z,72.39
2023-09-10T06:48:52.618Z,72.60
2023-09-10T06:49:52.747Z,70.33
2023-09-10T06:50:52.961Z,70.39
2023-09-10T06:51:53.030Z,69.44
2023-09-10T06:52:53.201Z,69.14
2023-09-10T06:53:53.284Z,69.16
2023-09-10T06:54:54.982Z,69.52
2023-09-10T06:55:53.548Z,70.26
2023-09-10T06:56:53.623Z,70.51
2023-09-10T06:57:53.785Z,67.79
2023-09-10T06:58:53.963Z,67.56
2023-09-10T06:59:54.015Z,67.64
2023-09-10T07:00:54.196Z,67.55
2023-09-10T07:01:54.272Z,67.62
2023-09-10T07:02:54.389Z,67.80
2023-09-10T07:03:54.477Z,67.33
2023-09-10T07:04:54.677Z,67.86
2023-09-10T07:05:54.848Z,68.52
2023-09-10T07:06:54.860Z,68.41
2023-09-10T07:07:55.008Z,67.12
2023-09-10T07:08:55.073Z,67.69
2023-09-10T07:09:55.191Z,66.59
2023-09-10T07:10:55.310Z,67.59
2023-09-10T07:11:55.557Z,68.13
2023-09-10T07:12:55.588Z,66.45
2023-09-10T07:13:55.732Z,66.19
2023-09-10T07:14:55.804Z,67.71
2023-09-10T07:15:55.972Z,66.17
2023-09-10T07:16:56.065Z,67.71
2023-09-10T07:17:56.330Z,65.66
2023-09-10T07:18:56.292Z,64.75
2023-09-10T07:19:56.417Z,64.86
2023-09-10T07:20:56.499Z,65.10
2023-09-10T07:21:56.627Z,66.63
2023-09-10T07:22:56.736Z,67.19
2023-09-10T07:23:56.831Z,67.84
2023-09-10T07:24:56.949Z,66.27
2023-09-10T07:25:57.069Z,64.55
2023-09-10T07:26:57.140Z,66.10
2023-09-10T07:27:57.250Z,66.68
2023-09-10T07:28:57.421Z,64.71
2023-09-10T07:29:57.453Z,63.74
2023-09-10T07:30:57.575Z,63.62
2023-09-10T07:31:57.727Z,63.24
2023-09-10T07:32:57.806Z,65.40
2023-09-10T07:33:57.910Z,63.43
2023-09-10T07:34:58.070Z,63.72
2023-09-10T07:35:58.156Z,65.02
2023-09-10T07:36:58.284Z,63.10
2023-09-10T07:37:58.405Z,64.48
2023-09-10T07:38:58.525Z,65.32
2023-09-10T07:39:58.657Z,63.42
2023-09-10T07:40:58.888Z,62.43
2023-09-10T07:41:58.853Z,61.15
2023-09-10T07:42:58.986Z,61.55
2023-09-10T07:43:59.126Z,60.30
2023-09-10T07:44:59.201Z,61.51
2023-09-10T07:45:59.362Z,58.65
2023-09-10T07:46:59.513Z,59.11
2023-09-10T07:47:59.617Z,60.97
2023-09-10T07:48:59.691Z,60.32
2023-09-10T07:49:59.852Z,62.58
2023-09-10T07:50:59.909Z,59.33
2023-09-10T07:51:59.988Z,61.64
2023-09-10T07:53:00.189Z,61.44
2023-09-10T07:54:00.267Z,58.88
2023-09-10T07:55:00.450Z,58.30
2023-09-10T07:56:00.497Z,57.26
2023-09-10T07:57:00.596Z,61.06
2023-09-10T07:58:00.764Z,57.77
2023-09-10T07:59:00.929Z,58.78
2023-09-10T08:00:01.107Z,56.90
2023-09-10T08:01:01.176Z,58.54
2023-09-10T08:02:01.324Z,59.03
2023-09-10T08:03:01.535Z,59.27
2023-09-10T08:04:01.542Z,58.75
2023-09-10T08:05:01.683Z,59.56
2023-09-10T08:06:01.765Z,57.48
2023-09-10T08:07:01.899Z,57.40
2023-09-10T08:08:02.035Z,57.42
2023-09-10T08:09:02.128Z,58.06
2023-09-10T08:10:02.335Z,60.95
2023-09-10T08:11:02.498Z,59.51
2023-09-10T08:12:02.785Z,57.15
2023-09-10T08:13:02.684Z,57.83
2023-09-10T08:14:02.801Z,58.22
2023-09-10T08:15:02.895Z,58.19
2023-09-10T08:16:03.011Z,58.67
2023-09-10T08:17:03.250Z,57.81
2023-09-10T08:18:04.912Z,57.74
2023-09-10T08:19:03.386Z,57.01
2023-09-10T08:20:03.548Z,59.31
2023-09-10T08:21:03.665Z,58.69
2023-09-10T08:22:03.753Z,59.20
2023-09-10T08:23:03.875Z,57.69
2023-09-10T08:24:03.987Z,55.88
2023-09-10T08:25:04.132Z,57.03
2023-09-10T08:26:04.309Z,56.95
2023-09-10T08:27:04.489Z,55.20
2023-09-10T08:28:04.534Z,56.78
2023-09-10T08:29:04.741Z,55.78
2023-09-10T08:30:04.780Z,55.66
2023-09-10T08:31:04.948Z,58.02
2023-09-10T08:32:05.292Z,57.47
2023-09-10T08:33:05.234Z,56.96
2023-09-10T08:34:05.274Z,55.21
2023-09-10T08:35:05.455Z,55.06
2023-09-10T08:36:05.504Z,55.83
2023-09-10T08:37:05.615Z,55.06
2023-09-10T08:38:05.754Z,58.73
2023-09-10T08:39:05.945Z,54.01
2023-09-10T08:40:05.971Z,54.59
2023-09-10T08:41:06.143Z,56.13
2023-09-10T08:42:06.388Z,56.41
2023-09-10T08:43:06.418Z,53.01
2023-09-10T08:44:06.534Z,53.67
2023-09-10T08:45:06.668Z,54.80
2023-09-10T08:46:06.788Z,51.90
2023-09-10T08:47:06.939Z,52.35
2023-09-10T08:48:07.052Z,56.43
2023-09-10T08:49:07.107Z,54.37
2023-09-10T08:50:07.263Z,56.08
2023-09-10T08:51:07.375Z,57.05
2023-09-10T08:52:07.479Z,51.85
2023-09-10T08:53:07.662Z,53.14
2023-09-10T08:54:07.742Z,51.57
2023-09-10T08:55:07.854Z,48.72
2023-09-10T08:56:08.037Z,50.30
2023-09-10T08:57:08.156Z,54.33
2023-09-10T08:58:08.278Z,53.97
2023-09-10T08:59:08.386Z,53.69
2023-09-10T09:00:08.485Z,53.47
2023-09-10T09:01:08.646Z,52.80
2023-09-10T09:02:08.814Z,48.07
2023-09-10T09:03:09.029Z,48.75
2023-09-10T09:04:08.912Z,50.06
2023-09-10T09:05:09.151Z,52.99
2023-09-10T09:06:09.185Z,50.47
2023-09-10T09:07:09.365Z,48.31
2023-09-10T09:08:09.503Z,48.83
2023-09-10T09:09:09.605Z,50.70
2023-09-10T09:10:09.618Z,49.74
2023-09-10T09:11:09.751Z,46.95
2023-09-10T09:12:09.858Z,48.43
2023-09-10T09:13:09.988Z,51.10
2023-09-10T09:14:10.252Z,48.79
2023-09-10T09:15:10.275Z,50.47
2023-09-10T09:16:10.374Z,49.21
2023-09-10T09:17:10.594Z,48.52
2023-09-10T09:18:10.649Z,48.95
2023-09-10T09:19:10.722Z,48.76
2023-09-10T09:20:10.848Z,47.82
2023-09-10T09:21:10.954Z,50.23
2023-09-10T09:22:11.092Z,49.99
2023-09-10T09:23:11.301Z,48.79
2023-09-10T09:24:11.327Z,46.73
2023-09-10T09:25:11.522Z,48.82
2023-09-10T09:26:11.632Z,50.53
2023-09-10T09:27:11.729Z,49.02
2023-09-10T09:28:11.864Z,48.61
2023-09-10T09:29:12.121Z,51.07
2023-09-10T09:30:12.191Z,48.45
2023-09-10T09:31:12.346Z,46.81
2023-09-10T09:32:12.457Z,48.90
2023-09-10T09:33:12.643Z,48.52
2023-09-10T09:34:12.692Z,49.66
2023-09-10T09:35:12.909Z,49.68
2023-09-10T09:36:13.091Z,48.64
2023-09-10T09:37:13.082Z,47.17
2023-09-10T09:38:13.229Z,46.14
2023-09-10T09:39:13.320Z,46.74
2023-09-10T09:40:13.458Z,46.84
2023-09-10T09:41:13.611Z,47.90
2023-09-10T09:42:13.698Z,48.25
2023-09-10T09:43:20.830Z,47.34
2023-09-10T09:44:15.025Z,47.41
2023-09-10T09:45:14.121Z,48.37
2023-09-10T09:46:14.316Z,48.97
2023-09-10T09:47:14.437Z,48.37
2023-09-10T09:48:14.587Z,47.14
2023-09-10T09:49:14.628Z,48.46
2023-09-10T09:50:14.798Z,47.75
2023-09-10T09:51:14.872Z,49.73
2023-09-10T09:52:14.994Z,51.78
2023-09-10T09:53:15.124Z,51.14
2023-09-10T09:54:15.241Z,46.35
2023-09-10T09:55:15.348Z,47.49
2023-09-10T09:56:15.534Z,50.75
2023-09-10T09:57:15.611Z,48.65
2023-09-10T09:58:15.727Z,45.72
2023-09-10T09:59:15.871Z,45.97
2023-09-10T10:00:15.973Z,46.62
2023-09-10T10:01:16.142Z,50.14
2023-09-10T10:02:16.329Z,51.45
2023-09-10T10:03:16.376Z,46.93
2023-09-10T10:04:16.605Z,49.06
2023-09-10T10:05:16.724Z,48.54
2023-09-10T10:06:16.838Z,49.27
2023-09-10T10:07:24.867Z,48.61
2023-09-10T10:08:18.074Z,49.96
2023-09-10T10:09:17.095Z,49.50
2023-09-10T10:10:17.203Z,50.83
2023-09-10T10:11:17.368Z,50.10
2023-09-10T10:12:17.419Z,45.42
2023-09-10T10:13:17.520Z,46.40
2023-09-10T10:14:17.628Z,45.86
2023-09-10T10:15:17.754Z,46.22
2023-09-10T10:16:17.997Z,46.52
2023-09-10T10:17:18.096Z,48.27
2023-09-10T10:18:18.220Z,48.47
2023-09-10T10:19:18.252Z,47.32
2023-09-10T10:20:18.492Z,47.37
2023-09-10T10:21:18.548Z,49.27
2023-09-10T10:22:18.745Z,47.09
2023-09-10T10:23:24.724Z,44.69
2023-09-10T10:24:19.954Z,45.85
2023-09-10T10:25:19.097Z,45.86
2023-09-10T10:26:19.265Z,46.00
2023-09-10T10:27:19.369Z,48.98
2023-09-10T10:28:19.471Z,45.49
2023-09-10T10:29:19.681Z,45.30
2023-09-10T10:30:19.781Z,47.89
2023-09-10T10:31:19.912Z,49.24
2023-09-10T10:32:20.026Z,45.86
2023-09-10T10:33:20.143Z,45.55
2023-09-10T10:34:20.242Z,45.67
2023-09-10T10:35:20.391Z,44.66
2023-09-10T10:36:20.488Z,45.03
2023-09-10T10:37:20.616Z,43.96
2023-09-10T10:38:20.770Z,43.99
2023-09-10T10:39:20.869Z,46.64
2023-09-10T10:40:21.020Z,46.85
2023-09-10T10:41:21.169Z,44.86
2023-09-10T10:42:21.231Z,46.38
2023-09-10T10:43:21.334Z,44.91
2023-09-10T10:44:21.539Z,44.21
2023-09-10T10:45:21.586Z,43.62
2023-09-10T10:46:21.739Z,44.06
2023-09-10T10:47:21.973Z,44.38
2023-09-10T10:48:21.918Z,45.77
2023-09-10T10:49:22.094Z,46.05
2023-09-10T10:50:22.312Z,43.71
2023-09-10T10:51:22.458Z,43.82
2023-09-10T10:52:22.477Z,42.65
2023-09-10T10:53:22.658Z,43.37
2023-09-10T10:54:22.752Z,44.01
2023-09-10T10:55:22.861Z,43.46
2023-09-10T10:56:23.006Z,45.19
2023-09-10T10:57:23.058Z,44.53
2023-09-10T10:58:23.211Z,43.36
2023-09-10T10:59:23.372Z,43.13
2023-09-10T11:00:23.484Z,43.10
2023-09-10T11:01:23.609Z,45.85
2023-09-10T11:02:23.961Z,43.12
2023-09-10T11:03:23.908Z,43.21
2023-09-10T11:04:24.004Z,42.98
2023-09-10T11:05:24.391Z,42.08
2023-09-10T11:06:24.198Z,44.33
2023-09-10T11:07:24.388Z,46.14
2023-09-10T11:08:24.565Z,45.25
2023-09-10T11:09:24.601Z,44.73
2023-09-10T11:10:24.809Z,45.70
2023-09-10T11:11:24.839Z,44.86
2023-09-10T11:12:24.950Z,46.16
2023-09-10T11:13:26.097Z,43.17
2023-09-10T11:14:25.236Z,44.81
2023-09-10T11:15:25.385Z,42.06
2023-09-10T11:16:25.527Z,44.48
2023-09-10T11:17:25.975Z,44.48
2023-09-10T11:18:25.689Z,43.49
2023-09-10T11:19:25.848Z,44.05
2023-09-10T11:20:26.056Z,43.69
2023-09-10T11:21:26.092Z,42.46
2023-09-10T11:22:26.217Z,42.57
2023-09-10T11:23:26.390Z,42.82
2023-09-10T11:24:26.478Z,42.65
2023-09-10T11:25:26.552Z,41.14
2023-09-10T11:26:26.787Z,41.40
2023-09-10T11:27:26.869Z,42.49
2023-09-10T11:28:26.955Z,41.49
2023-09-10T11:29:27.118Z,42.90
2023-09-10T11:30:27.215Z,43.97
2023-09-10T11:31:27.506Z,43.51
2023-09-10T11:32:27.435Z,42.97
2023-09-10T11:33:27.596Z,41.32
2023-09-10T11:34:27.687Z,43.13
2023-09-10T11:35:27.829Z,42.72
2023-09-10T11:36:27.935Z,43.53
2023-09-10T11:37:28.034Z,41.72
2023-09-10T11:38:28.240Z,41.25
2023-09-10T11:39:28.245Z,42.39
2023-09-10T11:40:28.403Z,44.85
2023-09-10T11:41:28.572Z,44.21
2023-09-10T11:42:28.653Z,44.82
2023-09-10T11:43:28.776Z,45.41
2023-09-10T11:44:28.969Z,48.32
2023-09-10T11:45:29.041Z,45.79
2023-09-10T11:46:29.169Z,48.83
2023-09-10T11:47:29.433Z,42.21
2023-09-10T11:48:29.447Z,42.19
2023-09-10T11:49:29.518Z,42.13
2023-09-10T11:50:29.728Z,42.38
2023-09-10T11:51:29.757Z,43.14
2023-09-10T11:52:29.856Z,44.06
2023-09-10T11:53:30.124Z,43.14
2023-09-10T11:54:30.093Z,42.62
2023-09-10T11:55:30.192Z,41.93
2023-09-10T11:56:30.403Z,40.43
2023-09-10T11:57:30.497Z,40.77
2023-09-10T11:58:30.628Z,42.92
2023-09-10T11:59:30.817Z,42.45
2023-09-10T12:00:30.882Z,40.63
2023-09-10T12:01:31.031Z,42.66
2023-09-10T12:02:31.214Z,46.12
2023-09-10T12:03:31.493Z,41.44
2023-09-10T12:04:31.410Z,41.49
2023-09-10T12:05:33.849Z,43.75
2023-09-10T12:06:31.646Z,41.11
2023-09-10T12:07:31.776Z,45.74
2023-09-10T12:08:31.922Z,43.71
2023-09-10T12:09:32.028Z,44.18
2023-09-10T12:10:32.127Z,42.26
2023-09-10T12:11:32.233Z,44.53
2023-09-10T12:12:32.332Z,40.81
2023-09-10T12:13:32.512Z,41.35
2023-09-10T12:14:32.615Z,40.78
2023-09-10T12:15:32.723Z,41.42
2023-09-10T12:16:32.831Z,44.38
2023-09-10T12:17:33.088Z,40.13
2023-09-10T12:18:33.105Z,39.27
2023-09-10T12:19:33.247Z,39.11
2023-09-10T12:20:33.464Z,40.80
2023-09-10T12:21:33.476Z,40.17
2023-09-10T12:22:33.625Z,41.18
2023-09-10T12:23:33.810Z,42.78
2023-09-10T12:24:33.972Z,42.81
2023-09-10T12:25:34.044Z,44.67
2023-09-10T12:26:34.198Z,44.28
2023-09-10T12:27:34.316Z,43.74
2023-09-10T12:28:34.423Z,42.02
2023-09-10T12:29:34.604Z,43.10
2023-09-10T12:30:34.623Z,40.07
2023-09-10T12:31:34.804Z,39.14
2023-09-10T12:32:34.986Z,39.91
2023-09-10T12:33:35.059Z,39.63
2023-09-10T12:34:35.295Z,42.12
2023-09-10T12:35:35.426Z,41.86
2023-09-10T12:36:35.425Z,39.79
2023-09-10T12:37:35.577Z,40.62
2023-09-10T12:38:35.788Z,39.83
2023-09-10T12:39:35.824Z,39.39
2023-09-10T12:40:35.973Z,40.21
2023-09-10T12:41:37.354Z,40.45
2023-09-10T12:42:36.163Z,40.28
2023-09-10T12:43:36.282Z,41.32
2023-09-10T12:44:36.472Z,40.99
2023-09-10T12:45:36.519Z,41.20
2023-09-10T12:46:36.736Z,42.10
2023-09-10T12:47:36.793Z,40.36
2023-09-10T12:48:36.988Z,38.71
2023-09-10T12:49:36.946Z,38.58
2023-09-10T12:50:37.145Z,38.84
2023-09-10T12:51:37.198Z,39.19
2023-09-10T12:52:37.338Z,41.82
2023-09-10T12:53:37.474Z,40.28